sensor_id;sensor_type;location;lat;lon;timestamp;pressure;altitude;pressure_sealevel;temperature;humidity
22830;BME280;11581;51.250;6.778;2022-12-29T00:00:08;99971.97;;;13.40;77.42
22830;BME280;11581;51.250;6.778;2022-12-29T00:02:41;99942.00;;;13.22;77.31
22830;BME280;11581;51.250;6.778;2022-12-29T00:05:08;99947.38;;;13.22;77.19
22830;BME280;11581;51.250;6.778;2022-12-29T00:07:36;99883.72;;;12.95;76.70
22830;BME280;11581;51.250;6.778;2022-12-29T00:10:05;99909.81;;;13.15;77.00
22830;BME280;11581;51.250;6.778;2022-12-29T00:12:34;99960.88;;;13.43;77.08
22830;BME280;11581;51.250;6.778;2022-12-29T00:15:19;99947.13;;;13.46;76.97
22830;BME280;11581;51.250;6.778;2022-12-29T00:18:04;99943.59;;;13.45;77.05
22830;BME280;11581;51.250;6.778;2022-12-29T00:20:33;99797.41;;;12.64;76.99
22830;BME280;11581;51.250;6.778;2022-12-29T00:23:36;99861.03;;;13.05;76.36
22830;BME280;11581;51.250;6.778;2022-12-29T00:26:20;99937.50;;;13.52;77.23
22830;BME280;11581;51.250;6.778;2022-12-29T00:29:06;99928.25;;;13.54;76.81
22830;BME280;11581;51.250;6.778;2022-12-29T00:31:50;99924.19;;;13.58;77.18
22830;BME280;11581;51.250;6.778;2022-12-29T00:34:35;99921.50;;;13.58;77.22
22830;BME280;11581;51.250;6.778;2022-12-29T00:37:20;99889.00;;;13.46;76.92
22830;BME280;11581;51.250;6.778;2022-12-29T00:40:10;99917.16;;;13.57;76.57
22830;BME280;11581;51.250;6.778;2022-12-29T00:42:52;99905.44;;;13.58;76.95
22830;BME280;11581;51.250;6.778;2022-12-29T00:45:36;99913.66;;;13.57;76.85
22830;BME280;11581;51.250;6.778;2022-12-29T00:48:05;99903.13;;;13.55;76.95
22830;BME280;11581;51.250;6.778;2022-12-29T00:50:32;99779.53;;;12.79;77.09
22830;BME280;11581;51.250;6.778;2022-12-29T00:52:59;99691.81;;;12.31;76.93
22830;BME280;11581;51.250;6.778;2022-12-29T00:55:27;99881.06;;;13.53;76.85
22830;BME280;11581;51.250;6.778;2022-12-29T00:57:54;99858.72;;;13.46;76.85
22830;BME280;11581;51.250;6.778;2022-12-29T01:00:21;99736.25;;;12.75;76.90
22830;BME280;11581;51.250;6.778;2022-12-29T01:02:49;99906.06;;;13.75;76.81
22830;BME280;11581;51.250;6.778;2022-12-29T01:05:18;99898.28;;;13.80;76.62
22830;BME280;11581;51.250;6.778;2022-12-29T01:07:45;99896.72;;;13.85;76.63
22830;BME280;11581;51.250;6.778;2022-12-29T01:10:11;99746.88;;;12.98;76.34
22830;BME280;11581;51.250;6.778;2022-12-29T01:12:39;99889.81;;;13.97;75.76
22830;BME280;11581;51.250;6.778;2022-12-29T01:15:12;99750.72;;;13.10;75.56
22830;BME280;11581;51.250;6.778;2022-12-29T01:17:40;99892.81;;;14.09;75.77
22830;BME280;11581;51.250;6.778;2022-12-29T01:20:09;99723.97;;;13.10;75.36
22830;BME280;11581;51.250;6.778;2022-12-29T01:22:36;99731.72;;;13.19;75.36
22830;BME280;11581;51.250;6.778;2022-12-29T01:25:04;99907.50;;;14.27;75.16
22830;BME280;11581;51.250;6.778;2022-12-29T01:27:34;99862.75;;;14.13;73.91
22830;BME280;11581;51.250;6.778;2022-12-29T01:30:04;99863.31;;;14.23;74.05
22830;BME280;11581;51.250;6.778;2022-12-29T01:32:31;99895.50;;;14.44;74.32
22830;BME280;11581;51.250;6.778;2022-12-29T01:34:58;99902.97;;;14.49;74.08
22830;BME280;11581;51.250;6.778;2022-12-29T01:37:25;99918.50;;;14.53;73.75
22830;BME280;11581;51.250;6.778;2022-12-29T01:39:52;99917.09;;;14.57;73.28
22830;BME280;11581;51.250;6.778;2022-12-29T01:42:23;99880.16;;;14.59;71.98
22830;BME280;11581;51.250;6.778;2022-12-29T01:44:53;99883.28;;;14.63;72.21
22830;BME280;11581;51.250;6.778;2022-12-29T01:47:28;99890.13;;;14.65;71.04
22830;BME280;11581;51.250;6.778;2022-12-29T01:50:01;99845.28;;;14.38;71.49
22830;BME280;11581;51.250;6.778;2022-12-29T01:52:32;99876.94;;;14.70;71.58
22830;BME280;11581;51.250;6.778;2022-12-29T01:55:02;99801.63;;;14.23;71.68
22830;BME280;11581;51.250;6.778;2022-12-29T01:57:33;99864.97;;;14.73;71.08
22830;BME280;11581;51.250;6.778;2022-12-29T02:00:03;99831.97;;;14.45;70.99
22830;BME280;11581;51.250;6.778;2022-12-29T02:02:41;99856.72;;;14.74;70.17
22830;BME280;11581;51.250;6.778;2022-12-29T02:05:14;99871.84;;;14.75;70.27
22830;BME280;11581;51.250;6.778;2022-12-29T02:07:44;99854.69;;;14.76;70.66
22830;BME280;11581;51.250;6.778;2022-12-29T02:10:11;99860.91;;;14.77;70.51
22830;BME280;11581;51.250;6.778;2022-12-29T02:12:40;99795.56;;;14.36;70.55
22830;BME280;11581;51.250;6.778;2022-12-29T02:15:08;99829.78;;;14.61;69.75
22830;BME280;11581;51.250;6.778;2022-12-29T02:17:55;99865.44;;;14.76;67.63
22830;BME280;11581;51.250;6.778;2022-12-29T02:23:39;99862.06;;;14.68;68.39
22830;BME280;11581;51.250;6.778;2022-12-29T02:26:41;99839.38;;;14.70;67.89
22830;BME280;11581;51.250;6.778;2022-12-29T02:29:35;99674.59;;;13.76;67.40
22830;BME280;11581;51.250;6.778;2022-12-29T02:32:14;99823.84;;;14.66;67.33
22830;BME280;11581;51.250;6.778;2022-12-29T02:34:56;99838.81;;;14.81;67.08
22830;BME280;11581;51.250;6.778;2022-12-29T02:37:34;99844.00;;;14.83;67.05
22830;BME280;11581;51.250;6.778;2022-12-29T02:40:09;99839.47;;;14.83;67.43
22830;BME280;11581;51.250;6.778;2022-12-29T02:42:42;99767.38;;;14.46;67.14
22830;BME280;11581;51.250;6.778;2022-12-29T02:45:19;99841.75;;;14.86;67.05
22830;BME280;11581;51.250;6.778;2022-12-29T02:47:54;99843.41;;;14.87;66.92
22830;BME280;11581;51.250;6.778;2022-12-29T02:50:26;99798.47;;;14.68;67.32
22830;BME280;11581;51.250;6.778;2022-12-29T02:52:58;99833.31;;;14.89;66.98
22830;BME280;11581;51.250;6.778;2022-12-29T02:55:28;99817.00;;;14.91;68.23
22830;BME280;11581;51.250;6.778;2022-12-29T02:58:16;99804.41;;;14.91;65.81
22830;BME280;11581;51.250;6.778;2022-12-29T03:00:56;99807.09;;;14.91;66.05
22830;BME280;11581;51.250;6.778;2022-12-29T03:03:36;99800.69;;;14.92;66.37
22830;BME280;11581;51.250;6.778;2022-12-29T03:06:24;99799.66;;;14.93;66.01
22830;BME280;11581;51.250;6.778;2022-12-29T03:09:11;99793.28;;;14.94;66.47
22830;BME280;11581;51.250;6.778;2022-12-29T03:11:45;99560.88;;;13.57;66.66
22830;BME280;11581;51.250;6.778;2022-12-29T03:14:33;99787.41;;;14.84;67.55
22830;BME280;11581;51.250;6.778;2022-12-29T03:17:25;99838.09;;;14.94;66.10
22830;BME280;11581;51.250;6.778;2022-12-29T03:19:56;99794.53;;;14.98;67.89
22830;BME280;11581;51.250;6.778;2022-12-29T03:22:29;99787.09;;;15.00;67.22
22830;BME280;11581;51.250;6.778;2022-12-29T03:25:08;99554.66;;;13.50;66.88
22830;BME280;11581;51.250;6.778;2022-12-29T03:27:41;99792.47;;;15.00;67.26
22830;BME280;11581;51.250;6.778;2022-12-29T03:30:10;99787.09;;;15.00;67.91
22830;BME280;11581;51.250;6.778;2022-12-29T03:32:44;99755.13;;;14.71;66.64
22830;BME280;11581;51.250;6.778;2022-12-29T03:35:20;99780.09;;;14.99;66.35
22830;BME280;11581;51.250;6.778;2022-12-29T03:37:52;99740.72;;;14.72;66.61
22830;BME280;11581;51.250;6.778;2022-12-29T03:40:24;99790.44;;;15.02;67.10
22830;BME280;11581;51.250;6.778;2022-12-29T03:42:54;99796.63;;;15.03;67.60
22830;BME280;11581;51.250;6.778;2022-12-29T03:45:22;99773.09;;;15.05;67.46
22830;BME280;11581;51.250;6.778;2022-12-29T03:47:51;99784.47;;;15.07;67.49
22830;BME280;11581;51.250;6.778;2022-12-29T03:50:20;99786.31;;;15.06;66.73
22830;BME280;11581;51.250;6.778;2022-12-29T03:52:47;99763.75;;;14.94;67.40
22830;BME280;11581;51.250;6.778;2022-12-29T03:55:14;99784.88;;;15.10;67.39
22830;BME280;11581;51.250;6.778;2022-12-29T03:57:42;99752.44;;;15.12;66.85
22830;BME280;11581;51.250;6.778;2022-12-29T04:00:15;99744.59;;;15.04;67.14
22830;BME280;11581;51.250;6.778;2022-12-29T04:02:44;99675.84;;;14.62;66.98
22830;BME280;11581;51.250;6.778;2022-12-29T04:05:19;99741.31;;;15.08;67.38
22830;BME280;11581;51.250;6.778;2022-12-29T04:07:47;99709.03;;;14.95;67.20
22830;BME280;11581;51.250;6.778;2022-12-29T04:10:14;99742.38;;;15.20;67.05
22830;BME280;11581;51.250;6.778;2022-12-29T04:12:44;99752.09;;;15.21;67.07
22830;BME280;11581;51.250;6.778;2022-12-29T04:15:13;99798.41;;;15.23;67.06
22830;BME280;11581;51.250;6.778;2022-12-29T04:17:40;99579.00;;;14.17;66.85
22830;BME280;11581;51.250;6.778;2022-12-29T04:20:08;99733.41;;;15.00;66.97
22830;BME280;11581;51.250;6.778;2022-12-29T04:23:00;99732.41;;;15.08;65.32
22830;BME280;11581;51.250;6.778;2022-12-29T04:25:28;99735.94;;;15.08;66.78
22830;BME280;11581;51.250;6.778;2022-12-29T04:27:56;99667.94;;;14.54;66.21
22830;BME280;11581;51.250;6.778;2022-12-29T04:30:52;99781.03;;;15.26;66.77
22830;BME280;11581;51.250;6.778;2022-12-29T04:33:23;99773.59;;;15.21;66.61
22830;BME280;11581;51.250;6.778;2022-12-29T04:35:50;99725.75;;;14.97;66.44
22830;BME280;11581;51.250;6.778;2022-12-29T04:38:21;99771.09;;;15.26;65.67
22830;BME280;11581;51.250;6.778;2022-12-29T04:40:49;99773.78;;;15.26;65.99
22830;BME280;11581;51.250;6.778;2022-12-29T04:43:17;99759.16;;;15.29;66.01
22830;BME280;11581;51.250;6.778;2022-12-29T04:46:08;99734.28;;;15.07;65.72
22830;BME280;11581;51.250;6.778;2022-12-29T04:48:55;99760.31;;;15.13;65.85
22830;BME280;11581;51.250;6.778;2022-12-29T04:51:45;99721.25;;;15.04;65.47
22830;BME280;11581;51.250;6.778;2022-12-29T04:54:14;99786.00;;;15.29;65.17
22830;BME280;11581;51.250;6.778;2022-12-29T04:56:45;99785.19;;;15.28;65.62
22830;BME280;11581;51.250;6.778;2022-12-29T04:59:15;99688.88;;;14.65;65.60
22830;BME280;11581;51.250;6.778;2022-12-29T05:01:44;99796.56;;;15.30;65.33
22830;BME280;11581;51.250;6.778;2022-12-29T05:04:11;99777.75;;;15.30;65.29
22830;BME280;11581;51.250;6.778;2022-12-29T05:06:38;99783.13;;;15.30;65.20
22830;BME280;11581;51.250;6.778;2022-12-29T05:09:06;99767.16;;;15.16;65.26
22830;BME280;11581;51.250;6.778;2022-12-29T05:11:37;99797.16;;;15.32;64.81
22830;BME280;11581;51.250;6.778;2022-12-29T05:14:03;99786.44;;;15.32;65.15
22830;BME280;11581;51.250;6.778;2022-12-29T05:16:32;99731.75;;;14.99;64.91
22830;BME280;11581;51.250;6.778;2022-12-29T05:18:59;99798.84;;;15.33;65.23
22830;BME280;11581;51.250;6.778;2022-12-29T05:21:26;99800.50;;;15.34;65.04
22830;BME280;11581;51.250;6.778;2022-12-29T05:23:54;99796.16;;;15.33;65.14
22830;BME280;11581;51.250;6.778;2022-12-29T05:26:22;99795.31;;;15.33;65.10
22830;BME280;11581;51.250;6.778;2022-12-29T05:29:17;99796.16;;;15.33;64.51
22830;BME280;11581;51.250;6.778;2022-12-29T05:31:45;99796.16;;;15.33;65.13
22830;BME280;11581;51.250;6.778;2022-12-29T05:34:12;99831.47;;;15.30;64.83
22830;BME280;11581;51.250;6.778;2022-12-29T05:36:41;99783.13;;;15.30;64.75
22830;BME280;11581;51.250;6.778;2022-12-29T05:39:09;99802.94;;;15.29;64.62
22830;BME280;11581;51.250;6.778;2022-12-29T05:41:36;99815.13;;;15.25;64.40
22830;BME280;11581;51.250;6.778;2022-12-29T05:44:26;99741.25;;;15.02;64.05
22830;BME280;11581;51.250;6.778;2022-12-29T05:47:12;99778.50;;;15.18;64.55
22830;BME280;11581;51.250;6.778;2022-12-29T05:49:54;99767.31;;;15.01;64.72
22830;BME280;11581;51.250;6.778;2022-12-29T05:52:31;99783.03;;;15.11;64.69
22830;BME280;11581;51.250;6.778;2022-12-29T05:55:02;99773.06;;;14.98;65.07
22830;BME280;11581;51.250;6.778;2022-12-29T05:57:30;99760.22;;;14.94;65.06
22830;BME280;11581;51.250;6.778;2022-12-29T06:00:12;99720.81;;;14.60;63.78
22830;BME280;11581;51.250;6.778;2022-12-29T06:02:43;99812.78;;;15.09;65.07
22830;BME280;11581;51.250;6.778;2022-12-29T06:05:10;99832.22;;;15.11;64.80
22830;BME280;11581;51.250;6.778;2022-12-29T06:07:39;99825.16;;;15.10;64.65
22830;BME280;11581;51.250;6.778;2022-12-29T06:10:07;99826.13;;;14.96;64.49
22830;BME280;11581;51.250;6.778;2022-12-29T06:12:42;99773.38;;;14.82;64.58
22830;BME280;11581;51.250;6.778;2022-12-29T06:15:12;99799.47;;;14.95;63.32
22830;BME280;11581;51.250;6.778;2022-12-29T06:17:40;99833.84;;;15.12;64.43
22830;BME280;11581;51.250;6.778;2022-12-29T06:20:08;99826.84;;;15.11;63.94
22830;BME280;11581;51.250;6.778;2022-12-29T06:22:36;99828.88;;;15.09;64.15
22830;BME280;11581;51.250;6.778;2022-12-29T06:25:04;99804.41;;;14.91;64.17
22830;BME280;11581;51.250;6.778;2022-12-29T06:27:34;99764.44;;;14.41;63.54
22830;BME280;11581;51.250;6.778;2022-12-29T06:30:01;99816.28;;;14.76;64.09
22830;BME280;11581;51.250;6.778;2022-12-29T06:32:30;99861.47;;;15.00;63.59
22830;BME280;11581;51.250;6.778;2022-12-29T06:35:04;99854.13;;;14.87;63.94
22830;BME280;11581;51.250;6.778;2022-12-29T06:37:33;99863.09;;;14.94;64.21
22830;BME280;11581;51.250;6.778;2022-12-29T06:40:01;99887.44;;;14.93;63.60
22830;BME280;11581;51.250;6.778;2022-12-29T06:42:40;99877.91;;;14.90;64.24
22830;BME280;11581;51.250;6.778;2022-12-29T06:45:34;99885.16;;;14.90;64.61
22830;BME280;11581;51.250;6.778;2022-12-29T06:48:03;99877.28;;;14.88;63.89
22830;BME280;11581;51.250;6.778;2022-12-29T06:50:30;99875.63;;;14.87;64.51
22830;BME280;11581;51.250;6.778;2022-12-29T06:52:57;99874.16;;;14.85;64.42
22830;BME280;11581;51.250;6.778;2022-12-29T06:55:25;99875.00;;;14.85;63.72
22830;BME280;11581;51.250;6.778;2022-12-29T06:57:54;99873.31;;;14.84;63.51
22830;BME280;11581;51.250;6.778;2022-12-29T07:00:21;99886.75;;;14.84;64.17
22830;BME280;11581;51.250;6.778;2022-12-29T07:02:47;99890.47;;;14.83;64.07
22830;BME280;11581;51.250;6.778;2022-12-29T07:05:16;99877.22;;;14.82;63.26
22830;BME280;11581;51.250;6.778;2022-12-29T07:07:43;99884.44;;;14.81;64.16
22830;BME280;11581;51.250;6.778;2022-12-29T07:10:10;99900.56;;;14.81;63.96
22830;BME280;11581;51.250;6.778;2022-12-29T07:12:37;99845.00;;;14.75;63.83
22830;BME280;11581;51.250;6.778;2022-12-29T07:15:06;99882.69;;;14.67;63.61
22830;BME280;11581;51.250;6.778;2022-12-29T07:17:34;99859.31;;;14.61;63.77
22830;BME280;11581;51.250;6.778;2022-12-29T07:20:01;99884.88;;;14.78;63.66
22830;BME280;11581;51.250;6.778;2022-12-29T07:22:32;99874.84;;;14.66;63.87
22830;BME280;11581;51.250;6.778;2022-12-29T07:24:59;99878.94;;;14.62;63.95
22830;BME280;11581;51.250;6.778;2022-12-29T07:27:26;99716.47;;;13.77;63.91
22830;BME280;11581;51.250;6.778;2022-12-29T07:29:54;99844.91;;;14.41;63.77
22830;BME280;11581;51.250;6.778;2022-12-29T07:32:22;99908.00;;;14.79;63.35
22830;BME280;11581;51.250;6.778;2022-12-29T07:34:49;99871.00;;;14.54;64.35
22830;BME280;11581;51.250;6.778;2022-12-29T07:37:16;99919.34;;;14.81;64.15
22830;BME280;11581;51.250;6.778;2022-12-29T07:39:46;99925.34;;;14.83;63.43
22830;BME280;11581;51.250;6.778;2022-12-29T07:42:13;99873.84;;;14.46;63.69
22830;BME280;11581;51.250;6.778;2022-12-29T07:44:43;99933.66;;;14.88;63.50
22830;BME280;11581;51.250;6.778;2022-12-29T07:47:32;99856.41;;;14.35;63.52
22830;BME280;11581;51.250;6.778;2022-12-29T07:50:00;99854.81;;;14.41;63.04
22830;BME280;11581;51.250;6.778;2022-12-29T07:52:27;99877.22;;;14.54;62.96
22830;BME280;11581;51.250;6.778;2022-12-29T07:54:55;99939.47;;;14.92;61.99
22830;BME280;11581;51.250;6.778;2022-12-29T07:57:22;99914.13;;;14.73;62.45
22830;BME280;11581;51.250;6.778;2022-12-29T07:59:48;99951.44;;;14.89;62.51
22830;BME280;11581;51.250;6.778;2022-12-29T08:02:15;99932.00;;;14.87;62.39
22830;BME280;11581;51.250;6.778;2022-12-29T08:04:43;99802.38;;;13.96;62.18
22830;BME280;11581;51.250;6.778;2022-12-29T08:07:10;99804.38;;;13.88;61.82
22830;BME280;11581;51.250;6.778;2022-12-29T08:09:37;99932.75;;;14.81;62.21
22830;BME280;11581;51.250;6.778;2022-12-29T08:12:07;99837.63;;;14.14;61.42
22830;BME280;11581;51.250;6.778;2022-12-29T08:14:35;99865.88;;;14.31;62.06
22830;BME280;11581;51.250;6.778;2022-12-29T08:17:04;99957.34;;;14.78;61.32
22830;BME280;11581;51.250;6.778;2022-12-29T08:19:31;99893.06;;;14.28;62.04
22830;BME280;11581;51.250;6.778;2022-12-29T08:21:58;99954.19;;;14.75;62.35
22830;BME280;11581;51.250;6.778;2022-12-29T08:24:25;99924.88;;;14.52;61.80
22830;BME280;11581;51.250;6.778;2022-12-29T08:26:52;99970.88;;;14.70;62.07
22830;BME280;11581;51.250;6.778;2022-12-29T08:29:21;99971.06;;;14.69;61.72
22830;BME280;11581;51.250;6.778;2022-12-29T08:31:50;99945.06;;;14.48;62.22
22830;BME280;11581;51.250;6.778;2022-12-29T08:34:17;99761.38;;;13.39;62.93
22830;BME280;11581;51.250;6.778;2022-12-29T08:36:45;99972.28;;;14.66;63.46
22830;BME280;11581;51.250;6.778;2022-12-29T08:39:12;99990.41;;;14.64;63.85
22830;BME280;11581;51.250;6.778;2022-12-29T08:41:39;99988.69;;;14.57;63.53
22830;BME280;11581;51.250;6.778;2022-12-29T08:44:07;99992.34;;;14.49;63.85
22830;BME280;11581;51.250;6.778;2022-12-29T08:46:35;99994.66;;;14.38;63.63
22830;BME280;11581;51.250;6.778;2022-12-29T08:49:03;99930.81;;;13.91;63.99
22830;BME280;11581;51.250;6.778;2022-12-29T08:51:34;99996.94;;;14.20;64.38
22830;BME280;11581;51.250;6.778;2022-12-29T08:54:02;99990.47;;;14.14;64.47
22830;BME280;11581;51.250;6.778;2022-12-29T08:56:30;99998.41;;;14.08;64.72
22830;BME280;11581;51.250;6.778;2022-12-29T08:58:58;99997.13;;;14.04;64.86
22830;BME280;11581;51.250;6.778;2022-12-29T09:01:28;99978.66;;;13.94;64.87
22830;BME280;11581;51.250;6.778;2022-12-29T09:03:58;99990.13;;;14.03;64.50
22830;BME280;11581;51.250;6.778;2022-12-29T09:06:24;99973.50;;;13.93;64.65
22830;BME280;11581;51.250;6.778;2022-12-29T09:08:53;100001.47;;;14.05;64.17
22830;BME280;11581;51.250;6.778;2022-12-29T09:11:22;99993.91;;;14.08;65.13
22830;BME280;11581;51.250;6.778;2022-12-29T09:13:49;100002.41;;;13.97;65.00
22830;BME280;11581;51.250;6.778;2022-12-29T09:16:17;99973.69;;;13.91;64.71
22830;BME280;11581;51.250;6.778;2022-12-29T09:18:44;100003.41;;;14.25;65.46
22830;BME280;11581;51.250;6.778;2022-12-29T09:21:14;100016.91;;;14.32;64.13
22830;BME280;11581;51.250;6.778;2022-12-29T09:23:41;100014.94;;;14.40;64.83
22830;BME280;11581;51.250;6.778;2022-12-29T09:26:08;99948.50;;;14.07;64.47
22830;BME280;11581;51.250;6.778;2022-12-29T09:28:36;100005.88;;;14.41;63.49
22830;BME280;11581;51.250;6.778;2022-12-29T09:31:03;100029.97;;;14.56;63.84
22830;BME280;11581;51.250;6.778;2022-12-29T09:33:30;100029.22;;;14.62;64.27
22830;BME280;11581;51.250;6.778;2022-12-29T09:35:59;99994.75;;;14.44;64.31
22830;BME280;11581;51.250;6.778;2022-12-29T09:38:28;100020.25;;;14.76;63.31
22830;BME280;11581;51.250;6.778;2022-12-29T09:40:58;100007.16;;;14.66;63.26
22830;BME280;11581;51.250;6.778;2022-12-29T09:43:51;100016.31;;;14.93;60.90
22830;BME280;11581;51.250;6.778;2022-12-29T09:46:24;100031.81;;;14.97;60.26
22830;BME280;11581;51.250;6.778;2022-12-29T09:48:57;100024.41;;;14.99;60.72
22830;BME280;11581;51.250;6.778;2022-12-29T09:51:31;99771.63;;;13.50;61.87
22830;BME280;11581;51.250;6.778;2022-12-29T09:54:19;100039.09;;;15.03;59.65
22830;BME280;11581;51.250;6.778;2022-12-29T09:56:49;100012.34;;;14.89;61.42
22830;BME280;11581;51.250;6.778;2022-12-29T09:59:21;100036.69;;;15.08;61.12
22830;BME280;11581;51.250;6.778;2022-12-29T10:01:57;100034.25;;;15.13;59.46
22830;BME280;11581;51.250;6.778;2022-12-29T10:04:26;99982.00;;;14.88;61.69
22830;BME280;11581;51.250;6.778;2022-12-29T10:06:57;99914.97;;;14.53;59.28
22830;BME280;11581;51.250;6.778;2022-12-29T10:09:34;100039.22;;;15.37;58.32
22830;BME280;11581;51.250;6.778;2022-12-29T10:12:13;100033.31;;;15.48;57.35
22830;BME280;11581;51.250;6.778;2022-12-29T10:14:55;100016.66;;;15.59;57.30
22830;BME280;11581;51.250;6.778;2022-12-29T10:17:34;100019.81;;;15.70;56.10
22830;BME280;11581;51.250;6.778;2022-12-29T10:20:22;100014.88;;;15.73;55.93
22830;BME280;11581;51.250;6.778;2022-12-29T10:23:04;100037.28;;;15.87;55.17
22830;BME280;11581;51.250;6.778;2022-12-29T10:25:38;100045.16;;;15.88;55.68
22830;BME280;11581;51.250;6.778;2022-12-29T10:28:15;100047.66;;;15.90;54.91
22830;BME280;11581;51.250;6.778;2022-12-29T10:30:46;100012.81;;;15.75;56.51
22830;BME280;11581;51.250;6.778;2022-12-29T10:33:17;100023.13;;;15.72;55.95
22830;BME280;11581;51.250;6.778;2022-12-29T10:35:47;100039.59;;;15.90;57.77
22830;BME280;11581;51.250;6.778;2022-12-29T10:38:22;99992.31;;;15.68;56.07
22830;BME280;11581;51.250;6.778;2022-12-29T10:40:57;100047.28;;;15.99;55.20
22830;BME280;11581;51.250;6.778;2022-12-29T10:43:27;100046.72;;;16.10;57.49
22830;BME280;11581;51.250;6.778;2022-12-29T10:45:56;100013.56;;;15.97;57.46
22830;BME280;11581;51.250;6.778;2022-12-29T10:48:26;100049.53;;;16.36;56.67
22830;BME280;11581;51.250;6.778;2022-12-29T10:50:57;99978.03;;;16.08;56.10
22830;BME280;11581;51.250;6.778;2022-12-29T10:53:30;99997.34;;;16.31;54.52
22830;BME280;11581;51.250;6.778;2022-12-29T10:56:02;100048.84;;;16.75;55.56
22830;BME280;11581;51.250;6.778;2022-12-29T10:58:32;100062.13;;;16.89;57.15
22830;BME280;11581;51.250;6.778;2022-12-29T11:00:59;100048.09;;;17.00;56.39
22830;BME280;11581;51.250;6.778;2022-12-29T11:03:44;100090.56;;;17.05;52.58
22830;BME280;11581;51.250;6.778;2022-12-29T11:06:15;100065.06;;;17.07;53.04
22830;BME280;11581;51.250;6.778;2022-12-29T11:08:52;100070.66;;;17.06;51.82
22830;BME280;11581;51.250;6.778;2022-12-29T11:11:35;100071.91;;;17.03;50.95
22830;BME280;11581;51.250;6.778;2022-12-29T11:14:08;100055.97;;;17.02;54.42
22830;BME280;11581;51.250;6.778;2022-12-29T11:16:40;100071.47;;;17.00;53.89
22830;BME280;11581;51.250;6.778;2022-12-29T11:19:20;100079.38;;;16.95;51.05
22830;BME280;11581;51.250;6.778;2022-12-29T11:21:47;100075.19;;;16.86;53.81
22830;BME280;11581;51.250;6.778;2022-12-29T11:24:20;100071.25;;;16.82;51.22
22830;BME280;11581;51.250;6.778;2022-12-29T11:26:50;100104.78;;;16.73;52.22
22830;BME280;11581;51.250;6.778;2022-12-29T11:29:26;100094.16;;;16.65;52.94
22830;BME280;11581;51.250;6.778;2022-12-29T11:31:55;100106.38;;;16.54;53.32
22830;BME280;11581;51.250;6.778;2022-12-29T11:34:24;100117.50;;;16.45;53.46
22830;BME280;11581;51.250;6.778;2022-12-29T11:37:00;100103.56;;;16.35;52.50
22830;BME280;11581;51.250;6.778;2022-12-29T11:39:37;100079.19;;;16.09;52.27
22830;BME280;11581;51.250;6.778;2022-12-29T11:42:14;100096.59;;;16.13;51.22
22830;BME280;11581;51.250;6.778;2022-12-29T11:44:44;100026.94;;;15.49;53.16
22830;BME280;11581;51.250;6.778;2022-12-29T11:47:21;100113.06;;;15.97;52.20
22830;BME280;11581;51.250;6.778;2022-12-29T11:49:50;100117.94;;;15.87;53.44
22830;BME280;11581;51.250;6.778;2022-12-29T11:52:22;100122.47;;;15.80;53.14
22830;BME280;11581;51.250;6.778;2022-12-29T11:54:50;100138.72;;;15.72;54.69
22830;BME280;11581;51.250;6.778;2022-12-29T11:57:21;100115.53;;;15.64;53.24
22830;BME280;11581;51.250;6.778;2022-12-29T11:59:52;100134.91;;;15.59;55.87
22830;BME280;11581;51.250;6.778;2022-12-29T12:02:43;100122.25;;;15.53;53.33
22830;BME280;11581;51.250;6.778;2022-12-29T12:05:22;100146.19;;;15.48;53.28
22830;BME280;11581;51.250;6.778;2022-12-29T12:07:56;100129.63;;;15.45;54.58
22830;BME280;11581;51.250;6.778;2022-12-29T12:10:29;100111.63;;;15.24;54.57
22830;BME280;11581;51.250;6.778;2022-12-29T12:13:11;100067.94;;;14.95;54.01
22830;BME280;11581;51.250;6.778;2022-12-29T12:15:44;100114.03;;;15.19;54.70
22830;BME280;11581;51.250;6.778;2022-12-29T12:18:17;100137.34;;;15.33;54.45
22830;BME280;11581;51.250;6.778;2022-12-29T12:20:49;100148.47;;;15.30;54.42
22830;BME280;11581;51.250;6.778;2022-12-29T12:23:28;99994.25;;;14.34;54.11
22830;BME280;11581;51.250;6.778;2022-12-29T12:26:04;100048.66;;;14.64;53.81
22830;BME280;11581;51.250;6.778;2022-12-29T12:28:46;100126.53;;;15.06;53.74
22830;BME280;11581;51.250;6.778;2022-12-29T12:31:22;100087.56;;;14.74;54.61
22830;BME280;11581;51.250;6.778;2022-12-29T12:33:57;100148.06;;;15.12;54.85
22830;BME280;11581;51.250;6.778;2022-12-29T12:36:43;100150.31;;;15.09;54.48
22830;BME280;11581;51.250;6.778;2022-12-29T12:39:24;100149.66;;;15.07;54.66
22830;BME280;11581;51.250;6.778;2022-12-29T12:42:06;100085.09;;;14.58;53.91
22830;BME280;11581;51.250;6.778;2022-12-29T12:44:47;100132.13;;;14.90;54.30
22830;BME280;11581;51.250;6.778;2022-12-29T12:47:31;100157.19;;;14.97;54.15
22830;BME280;11581;51.250;6.778;2022-12-29T12:50:20;100159.44;;;14.93;54.47
22830;BME280;11581;51.250;6.778;2022-12-29T12:53:07;100111.56;;;14.61;54.53
22830;BME280;11581;51.250;6.778;2022-12-29T12:55:47;100119.97;;;14.58;54.75
22830;BME280;11581;51.250;6.778;2022-12-29T12:58:25;100160.56;;;14.84;55.10
22830;BME280;11581;51.250;6.778;2022-12-29T13:01:06;100176.84;;;14.83;54.76
22830;BME280;11581;51.250;6.778;2022-12-29T13:03:45;100115.94;;;14.48;54.87
22830;BME280;11581;51.250;6.778;2022-12-29T13:06:25;100184.47;;;14.79;55.45
22830;BME280;11581;51.250;6.778;2022-12-29T13:09:16;100178.44;;;14.77;54.91
22830;BME280;11581;51.250;6.778;2022-12-29T13:12:00;100178.94;;;14.66;55.60
22830;BME280;11581;51.250;6.778;2022-12-29T13:14:41;100201.13;;;14.75;55.27
22830;BME280;11581;51.250;6.778;2022-12-29T13:17:18;100196.97;;;14.72;55.55
22830;BME280;11581;51.250;6.778;2022-12-29T13:19:54;100187.41;;;14.70;56.76
22830;BME280;11581;51.250;6.778;2022-12-29T13:22:28;100163.66;;;14.52;56.38
22830;BME280;11581;51.250;6.778;2022-12-29T13:25:15;100162.19;;;14.50;55.79
22830;BME280;11581;51.250;6.778;2022-12-29T13:27:52;100189.00;;;14.64;56.28
22830;BME280;11581;51.250;6.778;2022-12-29T13:30:23;100188.19;;;14.64;57.10